MSC Regina — 3FGF9 — position and weather

sailwx.info

Track history (hours):
 
Tides and Currents Weather Stations Pressure Air Temp Water Temp Dewpoint Dewpoint Depression Visibility Wind Speed Wind Dir Waves Ship Positions

MSC Regina

Last reported at 2015-Apr-19 03:29 UTC. Time now 2015-Apr-19 09:26 UTC.
Position N 44°11' E 008°32'.

Length 259 m; draft 10.3 m.

Type: Ship (hazmat cat A). MMSI: 357331980.

Date/timePositionNaut miles runAvg speedWind from/ knotsBaromVisibWave heightAir tempDewpointWater temp
2015-Apr-19 03:29N 44°11' E 008°32'1112.3
2015-Apr-19 02:33N 44°21' E 008°40'7 6.7
2015-Apr-19 01:33N 44°25' E 008°47'0 0.0
2015-Apr-19 00:31N 44°25' E 008°47'0 0.0
2015-Apr-18 23:31N 44°25' E 008°47'0 0.0
2015-Apr-18 22:31N 44°25' E 008°47'0 0.0
2015-Apr-18 21:31N 44°25' E 008°47'0 0.0
2015-Apr-18 20:31N 44°25' E 008°47'0 0.0
2015-Apr-18 19:28N 44°25' E 008°47'0 0.0
2015-Apr-18 18:31N 44°25' E 008°47'0 0.0
2015-Apr-18 17:28N 44°25' E 008°47'0 0.0
2015-Apr-18 16:31N 44°25' E 008°47'0 0.0
2015-Apr-18 15:28N 44°25' E 008°47'0 0.0
2015-Apr-18 14:31N 44°25' E 008°47'0 0.0
2015-Apr-18 13:31N 44°25' E 008°47'0 0.0
2015-Apr-18 12:31N 44°25' E 008°47'0 0.0
2015-Apr-18 11:16N 44°25' E 008°47'0 0.0
2015-Apr-18 10:31N 44°25' E 008°47'0 0.0
2015-Apr-18 09:28N 44°25' E 008°47'0 0.0
2015-Apr-18 08:28N 44°25' E 008°47'0 0.0
2015-Apr-18 07:28N 44°25' E 008°47'2 2.7
2015-Apr-18 06:33N 44°24' E 008°44'4 4.2
2015-Apr-18 05:33N 44°20' E 008°43'5 5.1
2015-Apr-18 04:33N 44°16' E 008°48'7 7.1
2015-Apr-18 03:33N 44°11' E 008°55'7 7.2
2015-Apr-18 02:33N 44°07' E 009°03'8 7.8
2015-Apr-18 01:33N 44°01' E 009°11'8 8.3
2015-Apr-18 00:33N 43°54' E 009°17'9 8.6
2015-Apr-17 23:33N 43°48' E 009°26'8 8.3
2015-Apr-17 22:33N 43°42' E 009°34'8 7.8
2015-Apr-17 21:33N 43°37' E 009°41'10 9.7
2015-Apr-17 20:34N 43°32' E 009°52'5 4.8
2015-Apr-17 19:34N 43°30' E 009°59'1413.7
2015-Apr-17 18:33N 43°33' E 010°17'2 1.7
2015-Apr-17 17:33N 43°35' E 010°18'0 0.0
2015-Apr-17 16:34N 43°35' E 010°18'0 0.0
2015-Apr-17 15:30N 43°35' E 010°18'0 0.0
2015-Apr-17 14:33N 43°35' E 010°18'0 0.0
2015-Apr-17 13:33N 43°35' E 010°18'0 0.0
2015-Apr-17 12:34N 43°35' E 010°18'0 0.0
2015-Apr-17 11:34N 43°35' E 010°18'5 5.2
2015-Apr-17 10:34N 43°30' E 010°14'4 4.2
2015-Apr-17 09:34N 43°29' E 010°08'2 1.7
2015-Apr-17 08:34N 43°28' E 010°09'9 8.9
2015-Apr-17 07:33N 43°21' E 010°00'1616.4
2015-Apr-17 06:34N 43°13' E 009°41'1616.3
2015-Apr-17 05:33N 43°06' E 009°21'1616.5
2015-Apr-17 04:33N 42°59' E 009°01'1716.5
2015-Apr-17 03:33N 42°51' E 008°41'1616.2
2015-Apr-17 02:33N 42°43' E 008°21'1818.2
2015-Apr-17 01:33N 42°35' E 007°59'2020.1
2015-Apr-17 00:33N 42°26' E 007°35'8720.7
2015-Apr-16 20:21N 41°46' E 005°51'3820.8
2015-Apr-16 18:33N 41°29' E 005°06'2120.2
2015-Apr-16 17:32N 41°19' E 004°42'2321.1
2015-Apr-16 16:26N 41°09' E 004°14'2020.7
2015-Apr-16 15:30N 40°60' E 003°51'1920.4
2015-Apr-16 14:33N 40°51' E 003°29'2120.7
2015-Apr-16 13:33N 40°41' E 003°05'2120.6
2015-Apr-16 12:33N 40°32' E 002°41'2020.2
2015-Apr-16 11:33N 40°23' E 002°17'2020.2
2015-Apr-16 10:33N 40°13' E 001°54'2120.6
2015-Apr-16 09:33N 40°04' E 001°30'2120.6
2015-Apr-16 08:33N 39°54' E 001°06'6018.9
2015-Apr-16 05:24N 39°29' W 000°05'1214.0
2015-Apr-16 04:33N 39°26' W 000°19'0 0.3
2015-Apr-16 03:28N 39°26' W 000°20'0 0.0
2015-Apr-16 02:28N 39°26' W 000°20'0 0.0
2015-Apr-16 01:22N 39°26' W 000°20'0 0.0
2015-Apr-16 00:31N 39°26' W 000°20'0 0.0
2015-Apr-15 23:07N 39°26' W 000°20'0 0.0
2015-Apr-15 22:22N 39°26' W 000°20'0 0.0
2015-Apr-15 21:31N 39°26' W 000°20'0 0.0
2015-Apr-15 20:28N 39°26' W 000°20'0 0.0
2015-Apr-15 19:28N 39°26' W 000°20'0 0.0
2015-Apr-15 18:31N 39°26' W 000°20'0 0.0
2015-Apr-15 17:22N 39°26' W 000°20'0 0.0
2015-Apr-15 16:28N 39°26' W 000°20'0 0.0
2015-Apr-15 15:31N 39°26' W 000°20'0 0.3
2015-Apr-15 14:32N 39°26' W 000°20'0 0.0
2015-Apr-15 13:26N 39°26' W 000°20'0 0.0
2015-Apr-15 12:32N 39°26' W 000°19'0 0.0
2015-Apr-15 11:32N 39°26' W 000°19'0 0.0
2015-Apr-15 10:32N 39°26' W 000°19'0 0.0
2015-Apr-15 09:32N 39°26' W 000°20'0 0.0
2015-Apr-15 08:32N 39°26' W 000°19'37 2.8
2015-Apr-14 19:16N 38°59' E 000°13'2118.4
2015-Apr-14 18:07N 38°41' E 000°26'1118.8
2015-Apr-14 17:31N 38°31' E 000°19'3618.1
2015-Apr-14 15:32N 38°01' W 000°07'1818.2
2015-Apr-14 14:34N 37°47' W 000°20'1818.1
2015-Apr-14 13:33N 37°31' W 000°32'1817.9
2015-Apr-14 12:33N 37°20' W 000°50'1918.0
2015-Apr-14 11:31N 37°08' W 001°07'20717.2
2015-Apr-13 23:30N 36°00' W 005°11'17018.4
2015-Apr-13 14:15N 36°16' W 008°41'1618.5
2015-Apr-13 13:22N 36°21' W 009°01'12918.9
2015-Apr-13 06:33N 37°14' W 011°27'1919.2
2015-Apr-13 05:33N 37°24' W 011°48'2019.4
2015-Apr-13 04:32N 37°32' W 012°11'  
Track history (hours):
 
Tides and Currents Weather Stations Pressure Air Temp Water Temp Dewpoint Dewpoint Depression Visibility Wind Speed Wind Dir Waves Ship Positions

MSC Regina

Last reported at 2015-Apr-19 03:29 UTC. Time now 2015-Apr-19 09:26 UTC.
Position N 44°11' E 008°32'.

Length 259 m; draft 10.3 m.

Type: Ship (hazmat cat A). MMSI: 357331980.

Date/timePositionNaut miles runAvg speedWind from/ knotsBaromVisibWave heightAir tempDewpointWater temp
2015-Apr-19 03:29N 44°11' E 008°32'1112.3
2015-Apr-19 02:33N 44°21' E 008°40'7 6.7
2015-Apr-19 01:33N 44°25' E 008°47'0 0.0
2015-Apr-19 00:31N 44°25' E 008°47'0 0.0
2015-Apr-18 23:31N 44°25' E 008°47'0 0.0
2015-Apr-18 22:31N 44°25' E 008°47'0 0.0
2015-Apr-18 21:31N 44°25' E 008°47'0 0.0
2015-Apr-18 20:31N 44°25' E 008°47'0 0.0
2015-Apr-18 19:28N 44°25' E 008°47'0 0.0
2015-Apr-18 18:31N 44°25' E 008°47'0 0.0
2015-Apr-18 17:28N 44°25' E 008°47'0 0.0
2015-Apr-18 16:31N 44°25' E 008°47'0 0.0
2015-Apr-18 15:28N 44°25' E 008°47'0 0.0
2015-Apr-18 14:31N 44°25' E 008°47'0 0.0
2015-Apr-18 13:31N 44°25' E 008°47'0 0.0
2015-Apr-18 12:31N 44°25' E 008°47'0 0.0
2015-Apr-18 11:16N 44°25' E 008°47'0 0.0
2015-Apr-18 10:31N 44°25' E 008°47'0 0.0
2015-Apr-18 09:28N 44°25' E 008°47'0 0.0
2015-Apr-18 08:28N 44°25' E 008°47'0 0.0
2015-Apr-18 07:28N 44°25' E 008°47'2 2.7
2015-Apr-18 06:33N 44°24' E 008°44'4 4.2
2015-Apr-18 05:33N 44°20' E 008°43'5 5.1
2015-Apr-18 04:33N 44°16' E 008°48'7 7.1
2015-Apr-18 03:33N 44°11' E 008°55'7 7.2
2015-Apr-18 02:33N 44°07' E 009°03'8 7.8
2015-Apr-18 01:33N 44°01' E 009°11'8 8.3
2015-Apr-18 00:33N 43°54' E 009°17'9 8.6
2015-Apr-17 23:33N 43°48' E 009°26'8 8.3
2015-Apr-17 22:33N 43°42' E 009°34'8 7.8
2015-Apr-17 21:33N 43°37' E 009°41'10 9.7
2015-Apr-17 20:34N 43°32' E 009°52'5 4.8
2015-Apr-17 19:34N 43°30' E 009°59'1413.7
2015-Apr-17 18:33N 43°33' E 010°17'2 1.7
2015-Apr-17 17:33N 43°35' E 010°18'0 0.0
2015-Apr-17 16:34N 43°35' E 010°18'0 0.0
2015-Apr-17 15:30N 43°35' E 010°18'0 0.0
2015-Apr-17 14:33N 43°35' E 010°18'0 0.0
2015-Apr-17 13:33N 43°35' E 010°18'0 0.0
2015-Apr-17 12:34N 43°35' E 010°18'0 0.0
2015-Apr-17 11:34N 43°35' E 010°18'5 5.2
2015-Apr-17 10:34N 43°30' E 010°14'4 4.2
2015-Apr-17 09:34N 43°29' E 010°08'2 1.7
2015-Apr-17 08:34N 43°28' E 010°09'9 8.9
2015-Apr-17 07:33N 43°21' E 010°00'1616.4
2015-Apr-17 06:34N 43°13' E 009°41'1616.3
2015-Apr-17 05:33N 43°06' E 009°21'1616.5
2015-Apr-17 04:33N 42°59' E 009°01'1716.5
2015-Apr-17 03:33N 42°51' E 008°41'1616.2
2015-Apr-17 02:33N 42°43' E 008°21'1818.2
2015-Apr-17 01:33N 42°35' E 007°59'2020.1
2015-Apr-17 00:33N 42°26' E 007°35'8720.7
2015-Apr-16 20:21N 41°46' E 005°51'3820.8
2015-Apr-16 18:33N 41°29' E 005°06'2120.2
2015-Apr-16 17:32N 41°19' E 004°42'2321.1
2015-Apr-16 16:26N 41°09' E 004°14'2020.7
2015-Apr-16 15:30N 40°60' E 003°51'1920.4
2015-Apr-16 14:33N 40°51' E 003°29'2120.7
2015-Apr-16 13:33N 40°41' E 003°05'2120.6
2015-Apr-16 12:33N 40°32' E 002°41'2020.2
2015-Apr-16 11:33N 40°23' E 002°17'2020.2
2015-Apr-16 10:33N 40°13' E 001°54'2120.6
2015-Apr-16 09:33N 40°04' E 001°30'2120.6
2015-Apr-16 08:33N 39°54' E 001°06'6018.9
2015-Apr-16 05:24N 39°29' W 000°05'1214.0
2015-Apr-16 04:33N 39°26' W 000°19'0 0.3
2015-Apr-16 03:28N 39°26' W 000°20'0 0.0
2015-Apr-16 02:28N 39°26' W 000°20'0 0.0
2015-Apr-16 01:22N 39°26' W 000°20'0 0.0
2015-Apr-16 00:31N 39°26' W 000°20'0 0.0
2015-Apr-15 23:07N 39°26' W 000°20'0 0.0
2015-Apr-15 22:22N 39°26' W 000°20'0 0.0
2015-Apr-15 21:31N 39°26' W 000°20'0 0.0
2015-Apr-15 20:28N 39°26' W 000°20'0 0.0
2015-Apr-15 19:28N 39°26' W 000°20'0 0.0
2015-Apr-15 18:31N 39°26' W 000°20'0 0.0
2015-Apr-15 17:22N 39°26' W 000°20'0 0.0
2015-Apr-15 16:28N 39°26' W 000°20'0 0.0
2015-Apr-15 15:31N 39°26' W 000°20'0 0.3
2015-Apr-15 14:32N 39°26' W 000°20'0 0.0
2015-Apr-15 13:26N 39°26' W 000°20'0 0.0
2015-Apr-15 12:32N 39°26' W 000°19'0 0.0
2015-Apr-15 11:32N 39°26' W 000°19'0 0.0
2015-Apr-15 10:32N 39°26' W 000°19'0 0.0
2015-Apr-15 09:32N 39°26' W 000°20'0 0.0
2015-Apr-15 08:32N 39°26' W 000°19'37 2.8
2015-Apr-14 19:16N 38°59' E 000°13'2118.4
2015-Apr-14 18:07N 38°41' E 000°26'1118.8
2015-Apr-14 17:31N 38°31' E 000°19'3618.1
2015-Apr-14 15:32N 38°01' W 000°07'1818.2
2015-Apr-14 14:34N 37°47' W 000°20'1818.1
2015-Apr-14 13:33N 37°31' W 000°32'1817.9
2015-Apr-14 12:33N 37°20' W 000°50'1918.0
2015-Apr-14 11:31N 37°08' W 001°07'20717.2
2015-Apr-13 23:30N 36°00' W 005°11'17018.4
2015-Apr-13 14:15N 36°16' W 008°41'1618.5
2015-Apr-13 13:22N 36°21' W 009°01'12918.9
2015-Apr-13 06:33N 37°14' W 011°27'1919.2
2015-Apr-13 05:33N 37°24' W 011°48'2019.4
2015-Apr-13 04:32N 37°32' W 012°11'  

Dump ship's entire track history